sensor_id;sensor_type;location;lat;lon;timestamp;temperature;humidity
15341;DHT22;7770;52.158;5.372;2024-03-02T00:02:45;9.10;99.90
15341;DHT22;7770;52.158;5.372;2024-03-02T00:05:32;9.10;99.90
15341;DHT22;7770;52.158;5.372;2024-03-02T00:08:23;9.00;99.90
15341;DHT22;7770;52.158;5.372;2024-03-02T00:11:11;9.10;99.90
15341;DHT22;7770;52.158;5.372;2024-03-02T00:13:59;9.10;99.90
15341;DHT22;7770;52.158;5.372;2024-03-02T00:16:45;9.20;99.90
15341;DHT22;7770;52.158;5.372;2024-03-02T00:19:32;9.20;99.90
15341;DHT22;7770;52.158;5.372;2024-03-02T00:22:18;9.20;99.90
15341;DHT22;7770;52.158;5.372;2024-03-02T00:25:04;9.20;99.90
15341;DHT22;7770;52.158;5.372;2024-03-02T00:27:51;9.30;99.90
15341;DHT22;7770;52.158;5.372;2024-03-02T00:30:47;9.30;99.90
15341;DHT22;7770;52.158;5.372;2024-03-02T00:36:29;9.30;99.90
15341;DHT22;7770;52.158;5.372;2024-03-02T00:39:16;9.30;99.90
15341;DHT22;7770;52.158;5.372;2024-03-02T00:42:03;9.20;99.90
15341;DHT22;7770;52.158;5.372;2024-03-02T00:44:49;9.20;99.90
15341;DHT22;7770;52.158;5.372;2024-03-02T00:47:39;9.10;99.90
15341;DHT22;7770;52.158;5.372;2024-03-02T00:50:25;9.00;99.90
15341;DHT22;7770;52.158;5.372;2024-03-02T00:53:11;8.90;99.90
15341;DHT22;7770;52.158;5.372;2024-03-02T00:55:59;8.80;99.90
15341;DHT22;7770;52.158;5.372;2024-03-02T00:58:45;8.70;99.90
15341;DHT22;7770;52.158;5.372;2024-03-02T01:01:31;8.60;99.90
15341;DHT22;7770;52.158;5.372;2024-03-02T01:04:17;8.60;99.90
15341;DHT22;7770;52.158;5.372;2024-03-02T01:07:03;8.50;99.90
15341;DHT22;7770;52.158;5.372;2024-03-02T01:09:50;8.40;99.90
15341;DHT22;7770;52.158;5.372;2024-03-02T01:12:35;8.30;99.90
15341;DHT22;7770;52.158;5.372;2024-03-02T01:15:21;8.20;99.90
15341;DHT22;7770;52.158;5.372;2024-03-02T01:18:07;8.10;99.90
15341;DHT22;7770;52.158;5.372;2024-03-02T01:20:54;8.00;99.90
15341;DHT22;7770;52.158;5.372;2024-03-02T01:23:43;7.90;99.90
15341;DHT22;7770;52.158;5.372;2024-03-02T01:26:29;7.80;99.90
15341;DHT22;7770;52.158;5.372;2024-03-02T01:29:16;7.70;99.90
15341;DHT22;7770;52.158;5.372;2024-03-02T01:32:02;7.60;99.90
15341;DHT22;7770;52.158;5.372;2024-03-02T01:34:48;7.60;99.90
15341;DHT22;7770;52.158;5.372;2024-03-02T01:37:34;7.50;99.90
15341;DHT22;7770;52.158;5.372;2024-03-02T01:40:20;7.50;99.90
15341;DHT22;7770;52.158;5.372;2024-03-02T01:43:07;7.50;99.90
15341;DHT22;7770;52.158;5.372;2024-03-02T01:45:53;7.50;99.90
15341;DHT22;7770;52.158;5.372;2024-03-02T01:48:39;7.50;99.90
15341;DHT22;7770;52.158;5.372;2024-03-02T01:51:25;7.50;99.90
15341;DHT22;7770;52.158;5.372;2024-03-02T01:54:11;7.50;99.90
15341;DHT22;7770;52.158;5.372;2024-03-02T01:56:57;7.40;99.90
15341;DHT22;7770;52.158;5.372;2024-03-02T01:59:43;7.50;99.90
15341;DHT22;7770;52.158;5.372;2024-03-02T02:02:30;7.50;99.90
15341;DHT22;7770;52.158;5.372;2024-03-02T02:05:16;7.50;99.90
15341;DHT22;7770;52.158;5.372;2024-03-02T02:08:02;7.40;99.90
15341;DHT22;7770;52.158;5.372;2024-03-02T02:10:49;7.40;99.90
15341;DHT22;7770;52.158;5.372;2024-03-02T02:13:35;7.40;99.90
15341;DHT22;7770;52.158;5.372;2024-03-02T02:16:21;7.30;99.90
15341;DHT22;7770;52.158;5.372;2024-03-02T02:19:07;7.30;99.90
15341;DHT22;7770;52.158;5.372;2024-03-02T02:21:53;7.30;99.90
15341;DHT22;7770;52.158;5.372;2024-03-02T02:24:43;7.20;99.90
15341;DHT22;7770;52.158;5.372;2024-03-02T02:27:29;7.20;99.90
15341;DHT22;7770;52.158;5.372;2024-03-02T02:30:26;7.10;99.90
15341;DHT22;7770;52.158;5.372;2024-03-02T02:33:13;7.10;99.90
15341;DHT22;7770;52.158;5.372;2024-03-02T02:35:59;7.00;99.90
15341;DHT22;7770;52.158;5.372;2024-03-02T02:38:46;7.00;99.90
15341;DHT22;7770;52.158;5.372;2024-03-02T02:41:34;6.90;99.90
15341;DHT22;7770;52.158;5.372;2024-03-02T02:44:20;6.90;99.90
15341;DHT22;7770;52.158;5.372;2024-03-02T02:47:06;6.80;99.90
15341;DHT22;7770;52.158;5.372;2024-03-02T02:49:52;6.80;99.90
15341;DHT22;7770;52.158;5.372;2024-03-02T02:52:39;6.80;99.90
15341;DHT22;7770;52.158;5.372;2024-03-02T02:55:27;6.80;99.90
15341;DHT22;7770;52.158;5.372;2024-03-02T02:58:13;6.80;99.90
15341;DHT22;7770;52.158;5.372;2024-03-02T03:01:00;6.80;99.90
15341;DHT22;7770;52.158;5.372;2024-03-02T03:03:46;6.80;99.90
15341;DHT22;7770;52.158;5.372;2024-03-02T03:06:32;6.80;99.90
15341;DHT22;7770;52.158;5.372;2024-03-02T03:09:18;6.70;99.90
15341;DHT22;7770;52.158;5.372;2024-03-02T03:12:04;6.70;99.90
15341;DHT22;7770;52.158;5.372;2024-03-02T03:14:50;6.60;99.90
15341;DHT22;7770;52.158;5.372;2024-03-02T03:17:36;6.60;99.90
15341;DHT22;7770;52.158;5.372;2024-03-02T03:20:23;6.60;99.90
15341;DHT22;7770;52.158;5.372;2024-03-02T03:23:09;6.50;99.90
15341;DHT22;7770;52.158;5.372;2024-03-02T03:25:55;6.60;99.90
15341;DHT22;7770;52.158;5.372;2024-03-02T03:28:41;6.50;99.90
15341;DHT22;7770;52.158;5.372;2024-03-02T03:31:27;6.50;99.90
15341;DHT22;7770;52.158;5.372;2024-03-02T03:34:13;6.50;99.90
15341;DHT22;7770;52.158;5.372;2024-03-02T03:37:02;6.50;99.90
15341;DHT22;7770;52.158;5.372;2024-03-02T03:39:48;6.40;99.90
15341;DHT22;7770;52.158;5.372;2024-03-02T03:42:34;6.40;99.90
15341;DHT22;7770;52.158;5.372;2024-03-02T03:45:20;6.40;99.90
15341;DHT22;7770;52.158;5.372;2024-03-02T03:48:06;6.40;99.90
15341;DHT22;7770;52.158;5.372;2024-03-02T03:50:52;6.40;99.90
15341;DHT22;7770;52.158;5.372;2024-03-02T03:53:38;6.50;99.90
15341;DHT22;7770;52.158;5.372;2024-03-02T03:56:24;6.50;99.90
15341;DHT22;7770;52.158;5.372;2024-03-02T03:59:10;6.50;99.90
15341;DHT22;7770;52.158;5.372;2024-03-02T04:01:56;6.50;99.90
15341;DHT22;7770;52.158;5.372;2024-03-02T04:04:42;6.60;99.90
15341;DHT22;7770;52.158;5.372;2024-03-02T04:07:29;6.60;99.90
15341;DHT22;7770;52.158;5.372;2024-03-02T04:10:15;6.60;99.90
15341;DHT22;7770;52.158;5.372;2024-03-02T04:13:02;6.60;99.90
15341;DHT22;7770;52.158;5.372;2024-03-02T04:15:49;6.70;99.90
15341;DHT22;7770;52.158;5.372;2024-03-02T04:18:35;6.70;99.90
15341;DHT22;7770;52.158;5.372;2024-03-02T04:21:21;6.80;99.90
15341;DHT22;7770;52.158;5.372;2024-03-02T04:24:07;6.80;99.90
15341;DHT22;7770;52.158;5.372;2024-03-02T04:26:53;6.80;99.90
15341;DHT22;7770;52.158;5.372;2024-03-02T04:29:38;6.90;99.90
15341;DHT22;7770;52.158;5.372;2024-03-02T04:32:24;6.90;99.90
15341;DHT22;7770;52.158;5.372;2024-03-02T04:35:10;6.90;99.90
15341;DHT22;7770;52.158;5.372;2024-03-02T04:37:57;6.90;99.90
15341;DHT22;7770;52.158;5.372;2024-03-02T04:40:43;7.00;99.90
15341;DHT22;7770;52.158;5.372;2024-03-02T04:43:28;7.00;99.90
15341;DHT22;7770;52.158;5.372;2024-03-02T04:46:14;7.00;99.90
15341;DHT22;7770;52.158;5.372;2024-03-02T04:49:01;7.00;99.90
15341;DHT22;7770;52.158;5.372;2024-03-02T04:51:47;7.00;99.90
15341;DHT22;7770;52.158;5.372;2024-03-02T04:54:33;7.00;99.90
15341;DHT22;7770;52.158;5.372;2024-03-02T04:57:39;7.00;99.90
15341;DHT22;7770;52.158;5.372;2024-03-02T05:00:25;7.00;99.90
15341;DHT22;7770;52.158;5.372;2024-03-02T05:03:10;7.00;99.90
15341;DHT22;7770;52.158;5.372;2024-03-02T05:05:56;7.00;99.90
15341;DHT22;7770;52.158;5.372;2024-03-02T05:08:42;6.90;99.90
15341;DHT22;7770;52.158;5.372;2024-03-02T05:11:30;6.90;99.90
15341;DHT22;7770;52.158;5.372;2024-03-02T05:14:42;6.90;99.90
15341;DHT22;7770;52.158;5.372;2024-03-02T05:17:28;6.90;99.90
15341;DHT22;7770;52.158;5.372;2024-03-02T05:20:14;6.90;99.90
15341;DHT22;7770;52.158;5.372;2024-03-02T05:23:00;7.00;99.90
15341;DHT22;7770;52.158;5.372;2024-03-02T05:25:46;7.00;99.90
15341;DHT22;7770;52.158;5.372;2024-03-02T05:28:32;7.00;99.90
15341;DHT22;7770;52.158;5.372;2024-03-02T05:31:18;6.90;99.90
15341;DHT22;7770;52.158;5.372;2024-03-02T05:34:04;7.00;99.90
15341;DHT22;7770;52.158;5.372;2024-03-02T05:36:51;7.00;99.90
15341;DHT22;7770;52.158;5.372;2024-03-02T05:39:37;6.90;99.90
15341;DHT22;7770;52.158;5.372;2024-03-02T05:42:23;6.80;99.90
15341;DHT22;7770;52.158;5.372;2024-03-02T05:45:09;6.70;99.90
15341;DHT22;7770;52.158;5.372;2024-03-02T05:47:55;6.60;99.90
15341;DHT22;7770;52.158;5.372;2024-03-02T05:50:41;6.60;99.90
15341;DHT22;7770;52.158;5.372;2024-03-02T05:53:27;6.50;99.90
15341;DHT22;7770;52.158;5.372;2024-03-02T05:56:13;6.40;99.90
15341;DHT22;7770;52.158;5.372;2024-03-02T05:58:59;6.30;99.90
15341;DHT22;7770;52.158;5.372;2024-03-02T06:01:58;6.40;99.90
15341;DHT22;7770;52.158;5.372;2024-03-02T06:04:44;6.50;99.90
15341;DHT22;7770;52.158;5.372;2024-03-02T06:07:30;6.50;99.90
15341;DHT22;7770;52.158;5.372;2024-03-02T06:10:16;6.50;99.90
15341;DHT22;7770;52.158;5.372;2024-03-02T06:13:03;6.50;99.90
15341;DHT22;7770;52.158;5.372;2024-03-02T06:15:49;6.60;99.90
15341;DHT22;7770;52.158;5.372;2024-03-02T06:18:35;6.70;99.90
15341;DHT22;7770;52.158;5.372;2024-03-02T06:21:21;6.70;99.90
15341;DHT22;7770;52.158;5.372;2024-03-02T06:24:07;6.70;99.90
15341;DHT22;7770;52.158;5.372;2024-03-02T06:26:53;6.70;99.90
15341;DHT22;7770;52.158;5.372;2024-03-02T06:29:39;6.80;99.90
15341;DHT22;7770;52.158;5.372;2024-03-02T06:32:25;6.80;99.90
15341;DHT22;7770;52.158;5.372;2024-03-02T06:35:11;6.80;99.90
15341;DHT22;7770;52.158;5.372;2024-03-02T06:37:58;6.80;99.90
15341;DHT22;7770;52.158;5.372;2024-03-02T06:40:44;6.90;99.90
15341;DHT22;7770;52.158;5.372;2024-03-02T06:43:30;6.90;99.90
15341;DHT22;7770;52.158;5.372;2024-03-02T06:46:16;6.90;99.90
15341;DHT22;7770;52.158;5.372;2024-03-02T06:49:02;6.90;99.90
15341;DHT22;7770;52.158;5.372;2024-03-02T06:51:49;6.90;99.90
15341;DHT22;7770;52.158;5.372;2024-03-02T06:54:36;6.90;99.90
15341;DHT22;7770;52.158;5.372;2024-03-02T06:57:22;6.90;99.90
15341;DHT22;7770;52.158;5.372;2024-03-02T07:00:10;6.80;99.90
15341;DHT22;7770;52.158;5.372;2024-03-02T07:02:56;6.90;99.90
15341;DHT22;7770;52.158;5.372;2024-03-02T07:05:42;7.00;99.90
15341;DHT22;7770;52.158;5.372;2024-03-02T07:08:29;7.10;99.90
15341;DHT22;7770;52.158;5.372;2024-03-02T07:11:15;7.10;99.90
15341;DHT22;7770;52.158;5.372;2024-03-02T07:14:01;7.20;99.90
15341;DHT22;7770;52.158;5.372;2024-03-02T07:16:47;7.20;99.90
15341;DHT22;7770;52.158;5.372;2024-03-02T07:19:33;7.70;99.90
15341;DHT22;7770;52.158;5.372;2024-03-02T07:22:19;8.40;99.90
15341;DHT22;7770;52.158;5.372;2024-03-02T07:25:06;9.30;99.90
15341;DHT22;7770;52.158;5.372;2024-03-02T07:27:53;9.80;99.90
15341;DHT22;7770;52.158;5.372;2024-03-02T07:30:39;9.60;99.90
15341;DHT22;7770;52.158;5.372;2024-03-02T07:33:25;9.30;99.90
15341;DHT22;7770;52.158;5.372;2024-03-02T07:36:12;9.30;99.90
15341;DHT22;7770;52.158;5.372;2024-03-02T07:38:58;9.60;99.90
15341;DHT22;7770;52.158;5.372;2024-03-02T07:41:45;9.60;99.90
15341;DHT22;7770;52.158;5.372;2024-03-02T07:44:31;9.60;99.90
15341;DHT22;7770;52.158;5.372;2024-03-02T07:47:17;10.00;99.90
15341;DHT22;7770;52.158;5.372;2024-03-02T07:50:03;10.50;99.90
15341;DHT22;7770;52.158;5.372;2024-03-02T07:52:52;10.30;99.90
15341;DHT22;7770;52.158;5.372;2024-03-02T07:55:38;9.70;99.90
15341;DHT22;7770;52.158;5.372;2024-03-02T07:58:24;9.40;99.90
15341;DHT22;7770;52.158;5.372;2024-03-02T08:01:10;9.10;99.90
15341;DHT22;7770;52.158;5.372;2024-03-02T08:03:57;9.20;99.90
15341;DHT22;7770;52.158;5.372;2024-03-02T08:06:45;9.10;99.90
15341;DHT22;7770;52.158;5.372;2024-03-02T08:09:31;9.00;99.90
15341;DHT22;7770;52.158;5.372;2024-03-02T08:12:17;8.90;99.90
15341;DHT22;7770;52.158;5.372;2024-03-02T08:15:06;8.70;99.90
15341;DHT22;7770;52.158;5.372;2024-03-02T08:17:52;8.60;99.90
15341;DHT22;7770;52.158;5.372;2024-03-02T08:20:38;8.60;99.90
15341;DHT22;7770;52.158;5.372;2024-03-02T08:23:24;8.60;99.90
15341;DHT22;7770;52.158;5.372;2024-03-02T08:26:10;8.70;99.90
15341;DHT22;7770;52.158;5.372;2024-03-02T08:28:58;9.20;99.90
15341;DHT22;7770;52.158;5.372;2024-03-02T08:31:44;10.00;99.90
15341;DHT22;7770;52.158;5.372;2024-03-02T08:34:30;10.40;99.90
15341;DHT22;7770;52.158;5.372;2024-03-02T08:37:16;11.10;99.90
15341;DHT22;7770;52.158;5.372;2024-03-02T08:40:03;11.70;99.90
15341;DHT22;7770;52.158;5.372;2024-03-02T08:42:50;12.80;99.90
15341;DHT22;7770;52.158;5.372;2024-03-02T08:45:36;13.50;99.90
15341;DHT22;7770;52.158;5.372;2024-03-02T08:48:22;14.00;99.90
15341;DHT22;7770;52.158;5.372;2024-03-02T08:51:08;13.90;99.90
15341;DHT22;7770;52.158;5.372;2024-03-02T08:53:56;14.10;99.90
15341;DHT22;7770;52.158;5.372;2024-03-02T08:56:43;14.40;99.90
15341;DHT22;7770;52.158;5.372;2024-03-02T08:59:29;14.20;99.90
15341;DHT22;7770;52.158;5.372;2024-03-02T09:02:15;14.30;99.90
15341;DHT22;7770;52.158;5.372;2024-03-02T09:05:01;14.60;99.90
15341;DHT22;7770;52.158;5.372;2024-03-02T09:07:48;14.50;99.90
15341;DHT22;7770;52.158;5.372;2024-03-02T09:10:34;14.30;99.90
15341;DHT22;7770;52.158;5.372;2024-03-02T09:13:20;14.50;99.90
15341;DHT22;7770;52.158;5.372;2024-03-02T09:16:06;14.60;99.90
15341;DHT22;7770;52.158;5.372;2024-03-02T09:18:53;15.20;99.90
15341;DHT22;7770;52.158;5.372;2024-03-02T09:21:39;15.00;99.90
15341;DHT22;7770;52.158;5.372;2024-03-02T09:24:25;15.50;99.90
15341;DHT22;7770;52.158;5.372;2024-03-02T09:27:11;15.20;99.90
15341;DHT22;7770;52.158;5.372;2024-03-02T09:29:57;15.40;99.90
15341;DHT22;7770;52.158;5.372;2024-03-02T09:32:43;15.40;99.90
15341;DHT22;7770;52.158;5.372;2024-03-02T09:35:29;15.20;99.90
15341;DHT22;7770;52.158;5.372;2024-03-02T09:38:15;15.30;99.90
15341;DHT22;7770;52.158;5.372;2024-03-02T09:41:01;15.40;99.90
15341;DHT22;7770;52.158;5.372;2024-03-02T09:43:48;15.50;99.90
15341;DHT22;7770;52.158;5.372;2024-03-02T09:46:34;15.70;99.90
15341;DHT22;7770;52.158;5.372;2024-03-02T09:49:22;16.50;99.90
15341;DHT22;7770;52.158;5.372;2024-03-02T09:52:09;17.30;99.90
15341;DHT22;7770;52.158;5.372;2024-03-02T09:54:56;17.00;99.90
15341;DHT22;7770;52.158;5.372;2024-03-02T09:57:42;16.90;99.90
15341;DHT22;7770;52.158;5.372;2024-03-02T10:00:28;17.30;99.20
15341;DHT22;7770;52.158;5.372;2024-03-02T10:03:14;17.10;99.90
15341;DHT22;7770;52.158;5.372;2024-03-02T10:06:19;17.20;99.10
15341;DHT22;7770;52.158;5.372;2024-03-02T10:09:09;17.30;98.80
15341;DHT22;7770;52.158;5.372;2024-03-02T10:12:04;16.30;99.90
15341;DHT22;7770;52.158;5.372;2024-03-02T10:15:03;16.20;99.30
15341;DHT22;7770;52.158;5.372;2024-03-02T10:17:50;15.60;99.90
15341;DHT22;7770;52.158;5.372;2024-03-02T10:20:37;15.30;99.90
15341;DHT22;7770;52.158;5.372;2024-03-02T10:23:23;15.10;99.90
15341;DHT22;7770;52.158;5.372;2024-03-02T10:26:17;15.30;99.90
15341;DHT22;7770;52.158;5.372;2024-03-02T10:29:08;15.80;99.10
15341;DHT22;7770;52.158;5.372;2024-03-02T10:31:55;15.80;99.60
15341;DHT22;7770;52.158;5.372;2024-03-02T10:34:44;15.80;99.90
15341;DHT22;7770;52.158;5.372;2024-03-02T10:37:31;16.30;99.40
15341;DHT22;7770;52.158;5.372;2024-03-02T10:40:21;15.90;99.90
15341;DHT22;7770;52.158;5.372;2024-03-02T10:43:07;15.50;99.30
15341;DHT22;7770;52.158;5.372;2024-03-02T10:45:55;15.40;99.90
15341;DHT22;7770;52.158;5.372;2024-03-02T10:48:44;15.80;99.90
15341;DHT22;7770;52.158;5.372;2024-03-02T10:51:33;15.60;99.90
15341;DHT22;7770;52.158;5.372;2024-03-02T10:54:21;15.40;99.80
15341;DHT22;7770;52.158;5.372;2024-03-02T10:57:14;15.00;99.70
15341;DHT22;7770;52.158;5.372;2024-03-02T11:00:02;15.20;99.90
15341;DHT22;7770;52.158;5.372;2024-03-02T11:02:58;16.00;99.80
15341;DHT22;7770;52.158;5.372;2024-03-02T11:05:51;16.00;99.20
15341;DHT22;7770;52.158;5.372;2024-03-02T11:08:38;16.20;99.40
15341;DHT22;7770;52.158;5.372;2024-03-02T11:11:30;16.50;99.90
15341;DHT22;7770;52.158;5.372;2024-03-02T11:14:24;16.70;98.80
15341;DHT22;7770;52.158;5.372;2024-03-02T11:17:14;16.60;99.00
15341;DHT22;7770;52.158;5.372;2024-03-02T11:20:03;16.30;98.90
15341;DHT22;7770;52.158;5.372;2024-03-02T11:22:50;16.30;98.50
15341;DHT22;7770;52.158;5.372;2024-03-02T11:25:36;15.90;98.50
15341;DHT22;7770;52.158;5.372;2024-03-02T11:28:35;15.90;99.00
15341;DHT22;7770;52.158;5.372;2024-03-02T11:31:59;15.60;98.50
15341;DHT22;7770;52.158;5.372;2024-03-02T11:34:49;15.20;99.40
15341;DHT22;7770;52.158;5.372;2024-03-02T11:37:36;15.00;99.40
15341;DHT22;7770;52.158;5.372;2024-03-02T11:40:22;15.40;99.00
15341;DHT22;7770;52.158;5.372;2024-03-02T11:43:08;15.90;98.40
15341;DHT22;7770;52.158;5.372;2024-03-02T11:45:59;16.10;98.50
15341;DHT22;7770;52.158;5.372;2024-03-02T11:48:46;16.60;97.90
15341;DHT22;7770;52.158;5.372;2024-03-02T11:51:35;16.40;98.10
15341;DHT22;7770;52.158;5.372;2024-03-02T11:54:21;16.20;98.80
15341;DHT22;7770;52.158;5.372;2024-03-02T11:57:08;15.60;98.00
15341;DHT22;7770;52.158;5.372;2024-03-02T11:59:54;15.70;98.50
15341;DHT22;7770;52.158;5.372;2024-03-02T12:02:42;16.10;98.20
15341;DHT22;7770;52.158;5.372;2024-03-02T12:05:31;16.60;98.50
15341;DHT22;7770;52.158;5.372;2024-03-02T12:08:17;16.70;98.40
15341;DHT22;7770;52.158;5.372;2024-03-02T12:11:03;16.50;97.20
15341;DHT22;7770;52.158;5.372;2024-03-02T12:13:52;15.90;97.80
15341;DHT22;7770;52.158;5.372;2024-03-02T12:16:44;15.50;98.40
15341;DHT22;7770;52.158;5.372;2024-03-02T12:19:31;15.30;98.60
15341;DHT22;7770;52.158;5.372;2024-03-02T12:22:18;15.20;99.10
15341;DHT22;7770;52.158;5.372;2024-03-02T12:25:04;16.00;97.60
15341;DHT22;7770;52.158;5.372;2024-03-02T12:27:55;15.70;97.50
15341;DHT22;7770;52.158;5.372;2024-03-02T12:30:42;15.20;97.70
15341;DHT22;7770;52.158;5.372;2024-03-02T12:33:28;15.20;98.30
15341;DHT22;7770;52.158;5.372;2024-03-02T12:36:16;15.50;98.50
15341;DHT22;7770;52.158;5.372;2024-03-02T12:39:02;15.40;98.10
15341;DHT22;7770;52.158;5.372;2024-03-02T12:41:49;15.40;97.90
15341;DHT22;7770;52.158;5.372;2024-03-02T12:44:40;15.30;97.70
15341;DHT22;7770;52.158;5.372;2024-03-02T12:47:26;15.20;99.00
15341;DHT22;7770;52.158;5.372;2024-03-02T12:50:12;14.60;98.20
15341;DHT22;7770;52.158;5.372;2024-03-02T12:52:58;14.50;99.90
15341;DHT22;7770;52.158;5.372;2024-03-02T12:55:44;14.60;98.80
15341;DHT22;7770;52.158;5.372;2024-03-02T12:58:39;14.30;99.50
15341;DHT22;7770;52.158;5.372;2024-03-02T13:01:27;14.00;99.90
15341;DHT22;7770;52.158;5.372;2024-03-02T13:04:13;14.00;99.90
15341;DHT22;7770;52.158;5.372;2024-03-02T13:06:59;14.20;99.90
15341;DHT22;7770;52.158;5.372;2024-03-02T13:09:46;14.10;99.90
15341;DHT22;7770;52.158;5.372;2024-03-02T13:12:32;13.90;99.90
15341;DHT22;7770;52.158;5.372;2024-03-02T13:15:19;13.60;99.90
15341;DHT22;7770;52.158;5.372;2024-03-02T13:18:07;13.40;99.90
15341;DHT22;7770;52.158;5.372;2024-03-02T13:20:53;13.40;99.90
15341;DHT22;7770;52.158;5.372;2024-03-02T13:23:39;13.50;99.90
15341;DHT22;7770;52.158;5.372;2024-03-02T13:26:25;13.40;99.90
15341;DHT22;7770;52.158;5.372;2024-03-02T13:29:11;13.10;99.90
15341;DHT22;7770;52.158;5.372;2024-03-02T13:31:57;13.20;99.90
15341;DHT22;7770;52.158;5.372;2024-03-02T13:34:43;12.90;99.90
15341;DHT22;7770;52.158;5.372;2024-03-02T13:37:29;12.70;99.90
15341;DHT22;7770;52.158;5.372;2024-03-02T13:40:16;12.70;99.90
15341;DHT22;7770;52.158;5.372;2024-03-02T13:43:05;13.00;99.90
15341;DHT22;7770;52.158;5.372;2024-03-02T13:45:51;12.90;99.90
15341;DHT22;7770;52.158;5.372;2024-03-02T13:48:37;13.00;99.90
15341;DHT22;7770;52.158;5.372;2024-03-02T13:51:23;13.10;99.90
15341;DHT22;7770;52.158;5.372;2024-03-02T13:54:11;12.90;99.90
15341;DHT22;7770;52.158;5.372;2024-03-02T13:56:57;12.80;99.90
15341;DHT22;7770;52.158;5.372;2024-03-02T13:59:44;12.90;99.90
15341;DHT22;7770;52.158;5.372;2024-03-02T14:02:30;13.00;99.90
15341;DHT22;7770;52.158;5.372;2024-03-02T14:05:16;13.00;99.90
15341;DHT22;7770;52.158;5.372;2024-03-02T14:08:02;12.90;99.90
15341;DHT22;7770;52.158;5.372;2024-03-02T14:10:50;12.80;99.90
15341;DHT22;7770;52.158;5.372;2024-03-02T14:13:36;12.70;99.90
15341;DHT22;7770;52.158;5.372;2024-03-02T14:16:22;12.60;99.90
15341;DHT22;7770;52.158;5.372;2024-03-02T14:19:08;12.60;99.90
15341;DHT22;7770;52.158;5.372;2024-03-02T14:21:55;12.60;99.90
15341;DHT22;7770;52.158;5.372;2024-03-02T14:24:42;12.60;99.90
15341;DHT22;7770;52.158;5.372;2024-03-02T14:27:28;12.70;99.90
15341;DHT22;7770;52.158;5.372;2024-03-02T14:30:15;12.70;99.90
15341;DHT22;7770;52.158;5.372;2024-03-02T14:33:01;12.80;99.90
15341;DHT22;7770;52.158;5.372;2024-03-02T14:35:47;12.70;99.90
15341;DHT22;7770;52.158;5.372;2024-03-02T14:38:33;12.60;99.90
15341;DHT22;7770;52.158;5.372;2024-03-02T14:41:19;12.70;99.90
15341;DHT22;7770;52.158;5.372;2024-03-02T14:44:05;12.80;99.90
15341;DHT22;7770;52.158;5.372;2024-03-02T14:46:51;12.80;99.90
15341;DHT22;7770;52.158;5.372;2024-03-02T14:49:37;13.00;99.90
15341;DHT22;7770;52.158;5.372;2024-03-02T14:52:26;13.10;99.90
15341;DHT22;7770;52.158;5.372;2024-03-02T14:55:12;13.20;99.90
15341;DHT22;7770;52.158;5.372;2024-03-02T14:57:58;13.30;99.90
15341;DHT22;7770;52.158;5.372;2024-03-02T15:00:44;13.40;99.90
15341;DHT22;7770;52.158;5.372;2024-03-02T15:03:31;13.40;99.90
15341;DHT22;7770;52.158;5.372;2024-03-02T15:06:17;13.20;99.90
15341;DHT22;7770;52.158;5.372;2024-03-02T15:09:03;13.20;99.90
15341;DHT22;7770;52.158;5.372;2024-03-02T15:11:49;13.20;99.90
15341;DHT22;7770;52.158;5.372;2024-03-02T15:14:37;13.20;99.90
15341;DHT22;7770;52.158;5.372;2024-03-02T15:17:24;13.20;99.90
15341;DHT22;7770;52.158;5.372;2024-03-02T15:20:10;13.20;99.90
15341;DHT22;7770;52.158;5.372;2024-03-02T15:22:56;13.30;99.90
15341;DHT22;7770;52.158;5.372;2024-03-02T15:25:42;13.20;99.90
15341;DHT22;7770;52.158;5.372;2024-03-02T15:28:28;13.10;99.90
15341;DHT22;7770;52.158;5.372;2024-03-02T15:31:15;13.00;99.90
15341;DHT22;7770;52.158;5.372;2024-03-02T15:34:01;13.00;99.90
15341;DHT22;7770;52.158;5.372;2024-03-02T15:36:46;13.00;99.90
15341;DHT22;7770;52.158;5.372;2024-03-02T15:39:32;13.00;99.90
15341;DHT22;7770;52.158;5.372;2024-03-02T15:42:18;12.90;99.90
15341;DHT22;7770;52.158;5.372;2024-03-02T15:45:09;12.80;99.90
15341;DHT22;7770;52.158;5.372;2024-03-02T15:47:55;12.80;99.90
15341;DHT22;7770;52.158;5.372;2024-03-02T15:50:41;12.70;99.90
15341;DHT22;7770;52.158;5.372;2024-03-02T15:53:27;12.60;99.90
15341;DHT22;7770;52.158;5.372;2024-03-02T15:56:13;12.60;99.90
15341;DHT22;7770;52.158;5.372;2024-03-02T15:58:59;12.60;99.90
15341;DHT22;7770;52.158;5.372;2024-03-02T16:01:45;12.60;99.90
15341;DHT22;7770;52.158;5.372;2024-03-02T16:04:31;12.60;99.90
15341;DHT22;7770;52.158;5.372;2024-03-02T16:07:17;12.60;99.90
15341;DHT22;7770;52.158;5.372;2024-03-02T16:10:03;12.60;99.90
15341;DHT22;7770;52.158;5.372;2024-03-02T16:12:53;12.60;99.90
15341;DHT22;7770;52.158;5.372;2024-03-02T16:15:39;12.60;99.90
15341;DHT22;7770;52.158;5.372;2024-03-02T16:18:25;12.60;99.90
15341;DHT22;7770;52.158;5.372;2024-03-02T16:21:11;12.50;99.90
15341;DHT22;7770;52.158;5.372;2024-03-02T16:23:57;12.50;99.90
15341;DHT22;7770;52.158;5.372;2024-03-02T16:26:44;12.40;99.90
15341;DHT22;7770;52.158;5.372;2024-03-02T16:29:30;12.40;99.90
15341;DHT22;7770;52.158;5.372;2024-03-02T16:32:16;12.40;99.90
15341;DHT22;7770;52.158;5.372;2024-03-02T16:35:02;12.30;99.90
15341;DHT22;7770;52.158;5.372;2024-03-02T16:37:49;12.30;99.90
15341;DHT22;7770;52.158;5.372;2024-03-02T16:40:35;12.30;99.90
15341;DHT22;7770;52.158;5.372;2024-03-02T16:43:21;12.40;99.90
15341;DHT22;7770;52.158;5.372;2024-03-02T16:46:08;12.40;99.90
15341;DHT22;7770;52.158;5.372;2024-03-02T16:48:54;12.50;99.90
15341;DHT22;7770;52.158;5.372;2024-03-02T16:51:44;12.40;99.90
15341;DHT22;7770;52.158;5.372;2024-03-02T16:54:32;12.40;99.90
15341;DHT22;7770;52.158;5.372;2024-03-02T16:57:18;12.30;99.90
15341;DHT22;7770;52.158;5.372;2024-03-02T17:00:05;12.30;99.90
15341;DHT22;7770;52.158;5.372;2024-03-02T17:02:53;12.20;99.90
15341;DHT22;7770;52.158;5.372;2024-03-02T17:05:39;12.20;99.90
15341;DHT22;7770;52.158;5.372;2024-03-02T17:08:25;12.20;99.90
15341;DHT22;7770;52.158;5.372;2024-03-02T17:11:11;12.10;99.90
15341;DHT22;7770;52.158;5.372;2024-03-02T17:13:57;12.10;99.90
15341;DHT22;7770;52.158;5.372;2024-03-02T17:16:43;12.00;99.90
15341;DHT22;7770;52.158;5.372;2024-03-02T17:19:29;12.00;99.90
15341;DHT22;7770;52.158;5.372;2024-03-02T17:22:15;11.90;99.90
15341;DHT22;7770;52.158;5.372;2024-03-02T17:25:02;11.90;99.90
15341;DHT22;7770;52.158;5.372;2024-03-02T17:27:48;11.90;99.90
15341;DHT22;7770;52.158;5.372;2024-03-02T17:30:34;11.70;99.90
15341;DHT22;7770;52.158;5.372;2024-03-02T17:33:20;11.70;99.90
15341;DHT22;7770;52.158;5.372;2024-03-02T17:36:06;11.60;99.90
15341;DHT22;7770;52.158;5.372;2024-03-02T17:38:52;11.60;99.90
15341;DHT22;7770;52.158;5.372;2024-03-02T17:41:38;11.60;99.90
15341;DHT22;7770;52.158;5.372;2024-03-02T17:44:24;11.60;99.90
15341;DHT22;7770;52.158;5.372;2024-03-02T17:47:10;11.60;99.90
15341;DHT22;7770;52.158;5.372;2024-03-02T17:49:56;11.70;99.90
15341;DHT22;7770;52.158;5.372;2024-03-02T17:52:42;11.70;99.90
15341;DHT22;7770;52.158;5.372;2024-03-02T17:55:28;11.70;99.90
15341;DHT22;7770;52.158;5.372;2024-03-02T17:58:15;11.80;99.90
15341;DHT22;7770;52.158;5.372;2024-03-02T18:01:01;11.80;99.90
15341;DHT22;7770;52.158;5.372;2024-03-02T18:03:47;11.90;99.90